createdAt,value
2023-01-07T00:07:04.759Z,16.50390625
2023-01-07T00:17:04.641Z,16.50390625
2023-01-07T00:27:04.582Z,16.6015625
2023-01-07T00:37:04.498Z,16.6015625
2023-01-07T00:47:04.408Z,16.50390625
2023-01-07T00:57:04.337Z,16.6015625
2023-01-07T01:07:04.293Z,16.796875
2023-01-07T01:17:04.192Z,16.89453125
2023-01-07T01:27:04.147Z,16.69921875
2023-01-07T01:37:04.074Z,16.89453125
2023-01-07T01:47:04.038Z,16.796875
2023-01-07T01:57:03.918Z,16.39404296875
2023-01-07T02:07:03.863Z,16.39404296875
2023-01-07T02:17:03.771Z,16.19873046875
2023-01-07T02:27:03.748Z,16.10107421875
2023-01-07T02:37:03.681Z,16.10107421875
2023-01-07T02:47:03.589Z,15.90576171875
2023-01-07T02:57:03.458Z,15.7958984375
2023-01-07T03:07:03.396Z,15.6005859375
2023-01-07T03:17:03.344Z,15.5029296875
2023-01-07T03:27:03.235Z,15.4052734375
2023-01-07T03:37:03.165Z,15.5029296875
2023-01-07T03:47:03.194Z,15.5029296875
2023-01-07T03:57:03.049Z,15.4052734375
2023-01-07T04:07:02.985Z,15.4052734375
2023-01-07T04:17:02.921Z,15.29541015625
2023-01-07T04:27:02.933Z,15.29541015625
2023-01-07T04:37:02.751Z,15.29541015625
2023-01-07T04:47:02.822Z,15.29541015625
2023-01-07T04:57:02.583Z,15.19775390625
2023-01-07T05:07:02.523Z,15.10009765625
2023-01-07T05:17:02.755Z,15.00244140625
2023-01-07T05:27:02.401Z,14.90478515625
2023-01-07T05:37:02.320Z,15.00244140625
2023-01-07T05:47:02.243Z,14.794921875
2023-01-07T05:57:02.440Z,14.794921875
2023-01-07T06:07:02.053Z,14.794921875
2023-01-07T06:17:02.088Z,14.697265625
2023-01-07T06:27:01.963Z,14.599609375
2023-01-07T06:37:01.854Z,14.599609375
2023-01-07T06:47:01.894Z,14.501953125
2023-01-07T06:57:01.832Z,14.501953125
2023-01-07T07:07:01.658Z,14.404296875
2023-01-07T07:17:01.541Z,14.501953125
2023-01-07T07:27:01.488Z,14.501953125
2023-01-07T07:37:01.398Z,14.404296875
2023-01-07T07:47:01.361Z,14.404296875
2023-01-07T07:57:01.292Z,14.404296875
2023-01-07T08:07:01.213Z,14.29443359375
2023-01-07T08:17:01.122Z,14.404296875
2023-01-07T08:27:01.075Z,14.29443359375
2023-01-07T08:37:00.998Z,14.29443359375
2023-01-07T08:47:01.040Z,14.29443359375
2023-01-07T08:57:00.927Z,14.19677734375
2023-01-07T09:07:00.788Z,14.29443359375
2023-01-07T09:17:00.693Z,14.29443359375
2023-01-07T09:27:00.638Z,14.19677734375
2023-01-07T09:37:00.573Z,14.19677734375
2023-01-07T09:47:00.522Z,14.19677734375
2023-01-07T09:57:00.423Z,14.19677734375
2023-01-07T10:07:00.525Z,14.19677734375
2023-01-07T10:17:00.320Z,14.19677734375
2023-01-07T10:27:00.204Z,14.19677734375
2023-01-07T10:37:00.198Z,14.19677734375
2023-01-07T10:47:00.023Z,14.19677734375
2023-01-07T10:56:59.982Z,14.09912109375
2023-01-07T11:07:00.007Z,14.09912109375
2023-01-07T11:16:59.995Z,14.09912109375
2023-01-07T11:27:01.394Z,14.09912109375
2023-01-07T11:36:59.861Z,14.09912109375
2023-01-07T11:46:59.803Z,14.00146484375
2023-01-07T11:56:59.544Z,14.00146484375
2023-01-07T12:06:59.512Z,13.90380859375
2023-01-07T12:16:59.420Z,13.90380859375
2023-01-07T12:26:59.367Z,13.90380859375
2023-01-07T12:37:00.306Z,13.90380859375
2023-01-07T12:47:30.810Z,13.90380859375
2023-01-07T12:56:59.131Z,13.7939453125
2023-01-07T13:06:59.363Z,13.6962890625
2023-01-07T13:16:58.979Z,13.5986328125
2023-01-07T13:26:59.003Z,13.5009765625
2023-01-07T13:36:58.834Z,13.4033203125
2023-01-07T13:46:58.768Z,13.4033203125
2023-01-07T13:56:58.756Z,13.3056640625
2023-01-07T14:06:58.623Z,13.3056640625
2023-01-07T14:16:58.544Z,13.19580078125
2023-01-07T14:26:58.592Z,13.00048828125
2023-01-07T14:36:58.408Z,13.19580078125
2023-01-07T14:46:58.478Z,13.19580078125
2023-01-07T14:56:58.298Z,13.09814453125
2023-01-07T15:06:58.302Z,13.09814453125
2023-01-07T15:16:58.101Z,13.09814453125
2023-01-07T15:26:58.059Z,12.90283203125
2023-01-07T15:36:57.990Z,12.90283203125
2023-01-07T15:46:57.952Z,12.90283203125
2023-01-07T15:56:57.832Z,12.80517578125
2023-01-07T16:06:57.792Z,12.6953125
2023-01-07T16:16:57.709Z,12.59765625
2023-01-07T16:26:57.593Z,12.59765625
2023-01-07T16:36:57.628Z,12.59765625
2023-01-07T16:46:57.486Z,12.59765625
2023-01-07T16:56:57.415Z,12.5
2023-01-07T17:06:57.588Z,12.40234375
2023-01-07T17:16:57.299Z,12.298583984375
2023-01-07T17:26:57.188Z,12.40234375
2023-01-07T17:36:57.421Z,12.40234375
2023-01-07T17:46:57.050Z,12.40234375
2023-01-07T17:56:56.953Z,12.5
2023-01-07T18:06:57.034Z,12.40234375
2023-01-07T18:16:56.839Z,12.5
2023-01-07T18:26:56.841Z,12.5
2023-01-07T18:36:56.799Z,12.40234375
2023-01-07T18:46:56.716Z,12.40234375
2023-01-07T18:56:56.631Z,12.40234375
2023-01-07T19:06:56.625Z,12.5
2023-01-07T19:16:56.727Z,12.40234375
2023-01-07T19:26:56.483Z,12.40234375
2023-01-07T19:36:56.424Z,12.40234375
2023-01-07T19:46:56.226Z,12.40234375
2023-01-07T19:56:56.251Z,12.40234375
2023-01-07T20:06:56.118Z,12.40234375
2023-01-07T20:16:56.225Z,12.298583984375
2023-01-07T20:26:56.035Z,12.40234375
2023-01-07T20:36:55.836Z,12.80517578125
2023-01-07T20:46:55.812Z,13.00048828125
2023-01-07T20:56:55.751Z,12.90283203125
2023-01-07T21:06:55.752Z,13.09814453125
2023-01-07T21:16:55.595Z,12.90283203125
2023-01-07T21:26:55.603Z,13.19580078125
2023-01-07T21:36:55.521Z,13.19580078125
2023-01-07T21:46:55.342Z,13.4033203125
2023-01-07T21:56:55.372Z,13.4033203125
2023-01-07T22:06:55.306Z,13.4033203125
2023-01-07T22:16:55.263Z,13.3056640625
2023-01-07T22:26:55.166Z,13.3056640625
2023-01-07T22:36:55.110Z,13.19580078125
2023-01-07T22:46:54.899Z,13.3056640625
2023-01-07T22:56:55.026Z,13.19580078125
2023-01-07T23:06:54.776Z,13.3056640625
2023-01-07T23:16:54.753Z,13.4033203125
2023-01-07T23:26:54.738Z,13.4033203125
2023-01-07T23:36:54.743Z,13.4033203125
2023-01-07T23:46:54.496Z,13.5009765625
2023-01-07T23:56:54.404Z,13.5009765625
